createdAt,value
2022-11-05T00:00:35.761Z,98935.00
2022-11-05T00:03:28.466Z,98943.36
2022-11-05T00:06:15.377Z,98946.64
2022-11-05T00:09:02.174Z,98946.69
2022-11-05T00:11:49.035Z,98951.23
2022-11-05T00:14:36.211Z,98954.54
2022-11-05T00:17:04.267Z,98959.80
2022-11-05T00:19:32.327Z,98959.27
2022-11-05T00:22:19.404Z,98961.65
2022-11-05T00:25:06.628Z,98970.21
2022-11-05T00:27:34.900Z,98978.08
2022-11-05T00:30:03.518Z,98982.12
2022-11-05T00:32:33.071Z,98983.58
2022-11-05T00:35:01.348Z,98988.66
2022-11-05T00:37:30.914Z,98992.41
2022-11-05T00:39:59.942Z,98999.04
2022-11-05T00:42:46.976Z,99002.23
2022-11-05T00:45:15.551Z,99006.52
2022-11-05T00:48:02.417Z,99007.42
2022-11-05T00:50:31.200Z,99004.24
2022-11-05T00:53:00.675Z,99012.84
2022-11-05T00:55:38.745Z,99015.82
2022-11-05T00:58:10.389Z,99020.79
2022-11-05T01:00:41.450Z,99023.19
2022-11-05T01:03:14.225Z,99020.05
2022-11-05T01:05:49.449Z,99028.79
2022-11-05T01:08:20.102Z,99035.52
2022-11-05T01:10:55.821Z,99033.36
2022-11-05T01:13:27.328Z,99034.05
2022-11-05T01:15:56.779Z,99041.41
2022-11-05T01:18:25.493Z,99040.39
2022-11-05T01:20:54.032Z,99044.38
2022-11-05T01:23:22.334Z,99047.92
2022-11-05T01:25:50.481Z,99049.30
2022-11-05T01:28:19.136Z,99051.23
2022-11-05T01:30:55.868Z,99055.41
2022-11-05T01:33:25.441Z,99054.38
2022-11-05T01:35:53.820Z,99059.39
2022-11-05T01:38:21.909Z,99056.04
2022-11-05T01:40:50.013Z,99059.55
2022-11-05T01:43:21.926Z,99061.48
2022-11-05T01:45:54.731Z,99063.05
2022-11-05T01:48:23.068Z,99065.54
2022-11-05T01:50:59.511Z,99068.06
2022-11-05T01:53:34.633Z,99070.09
2022-11-05T01:56:24.378Z,99070.73
2022-11-05T01:58:54.909Z,99071.21
2022-11-05T02:01:24.110Z,99072.80
2022-11-05T02:03:55.918Z,99080.89
2022-11-05T02:06:26.202Z,99083.52
2022-11-05T02:09:11.570Z,99086.83
2022-11-05T02:11:40.090Z,99089.96
2022-11-05T02:14:08.170Z,99097.02
2022-11-05T02:16:50.647Z,99101.23
2022-11-05T02:19:37.469Z,99099.86
2022-11-05T02:22:42.867Z,99098.98
2022-11-05T02:25:35.675Z,99099.60
2022-11-05T02:28:09.709Z,99105.64
2022-11-05T02:30:49.790Z,99108.42
2022-11-05T02:33:23.528Z,99107.08
2022-11-05T02:36:24.936Z,99111.11
2022-11-05T02:38:52.888Z,99116.10
2022-11-05T02:41:29.939Z,99115.06
2022-11-05T02:44:26.823Z,99115.07
2022-11-05T02:47:19.202Z,99112.59
2022-11-05T02:50:07.568Z,99116.99
2022-11-05T02:52:59.940Z,99118.38
2022-11-05T02:55:45.324Z,99120.83
2022-11-05T02:58:13.807Z,99128.20
2022-11-05T03:00:53.649Z,99129.39
2022-11-05T03:03:39.820Z,99133.95
2022-11-05T03:06:07.981Z,99141.55
2022-11-05T03:09:09.627Z,99148.50
2022-11-05T03:12:04.100Z,99156.38
2022-11-05T03:15:09.643Z,99161.29
2022-11-05T03:17:58.705Z,99165.62
2022-11-05T03:20:57.388Z,99164.41
2022-11-05T03:23:33.498Z,99169.25
2022-11-05T03:26:19.388Z,99170.64
2022-11-05T03:28:56.627Z,99171.40
2022-11-05T03:31:26.559Z,99179.62
2022-11-05T03:33:56.000Z,99183.46
2022-11-05T03:36:28.778Z,99192.00
2022-11-05T03:39:02.776Z,99195.38
2022-11-05T03:41:33.030Z,99201.68
2022-11-05T03:44:05.766Z,99201.34
2022-11-05T03:46:49.450Z,99211.11
2022-11-05T03:49:28.450Z,99217.44
2022-11-05T03:52:06.535Z,99219.86
2022-11-05T03:54:35.353Z,99226.11
2022-11-05T03:57:11.667Z,99232.88
2022-11-05T03:59:45.743Z,99238.30
2022-11-05T04:02:18.457Z,99245.07
2022-11-05T04:04:46.681Z,99243.87
2022-11-05T04:07:33.537Z,99242.30
2022-11-05T04:10:20.234Z,99240.61
2022-11-05T04:13:06.959Z,99238.34
2022-11-05T04:15:54.943Z,99234.48
2022-11-05T04:18:23.323Z,99238.33
2022-11-05T04:21:10.067Z,99240.45
2022-11-05T04:23:56.753Z,99246.70
2022-11-05T04:26:24.770Z,99245.20
2022-11-05T04:29:12.155Z,99245.41
2022-11-05T04:31:40.779Z,99256.75
2022-11-05T04:34:08.840Z,99259.35
2022-11-05T04:36:37.322Z,99269.30
2022-11-05T04:39:05.581Z,99272.78
2022-11-05T04:41:33.623Z,99282.23
2022-11-05T04:44:02.587Z,99281.46
2022-11-05T04:46:30.603Z,99284.30
2022-11-05T04:48:58.717Z,99289.67
2022-11-05T04:51:27.489Z,99290.60
2022-11-05T04:53:56.157Z,99300.04
2022-11-05T04:56:25.470Z,99302.84
2022-11-05T04:58:53.630Z,99300.73
2022-11-05T05:01:24.026Z,99306.57
2022-11-05T05:03:54.252Z,99303.64
2022-11-05T05:06:22.748Z,99309.30
2022-11-05T05:08:51.877Z,99313.30
2022-11-05T05:11:22.142Z,99317.15
2022-11-05T05:13:50.488Z,99319.10
2022-11-05T05:16:22.242Z,99323.16
2022-11-05T05:18:51.068Z,99326.16
2022-11-05T05:21:39.451Z,99333.58
2022-11-05T05:24:18.893Z,99339.25
2022-11-05T05:26:50.842Z,99353.93
2022-11-05T05:29:20.523Z,99363.50
2022-11-05T05:31:49.103Z,99364.73
2022-11-05T05:34:17.313Z,99367.33
2022-11-05T05:36:45.387Z,99365.47
2022-11-05T05:39:15.576Z,99370.91
2022-11-05T05:41:43.689Z,99370.19
2022-11-05T05:44:11.740Z,99373.84
2022-11-05T05:46:40.412Z,99376.83
2022-11-05T05:49:12.721Z,99382.11
2022-11-05T05:51:41.093Z,99386.55
2022-11-05T05:54:10.718Z,99393.02
2022-11-05T05:56:43.393Z,99401.92
2022-11-05T05:59:12.407Z,99408.58
2022-11-05T06:01:41.200Z,99412.40
2022-11-05T06:04:10.744Z,99416.06
2022-11-05T06:06:39.312Z,99416.98
2022-11-05T06:09:07.391Z,99418.75
2022-11-05T06:11:35.449Z,99425.06
2022-11-05T06:14:03.561Z,99428.16
2022-11-05T06:16:36.067Z,99428.64
2022-11-05T06:19:04.700Z,99434.02
2022-11-05T06:21:33.021Z,99433.52
2022-11-05T06:24:03.284Z,99431.64
2022-11-05T06:26:31.753Z,99433.96
2022-11-05T06:28:59.794Z,99429.91
2022-11-05T06:31:27.834Z,99424.81
2022-11-05T06:33:55.936Z,99425.19
2022-11-05T06:36:24.049Z,99431.14
2022-11-05T06:38:52.581Z,99432.52
2022-11-05T06:41:20.619Z,99438.79
2022-11-05T06:43:48.737Z,99446.60
2022-11-05T06:46:17.245Z,99449.39
2022-11-05T06:48:45.738Z,99456.61
2022-11-05T06:51:13.773Z,99463.70
2022-11-05T06:53:42.365Z,99469.30
2022-11-05T06:56:10.874Z,99471.50
2022-11-05T06:58:39.430Z,99477.57
2022-11-05T07:01:10.971Z,99482.30
2022-11-05T07:03:39.797Z,99486.18
2022-11-05T07:06:08.236Z,99490.01
2022-11-05T07:08:38.132Z,99495.11
2022-11-05T07:11:06.566Z,99500.11
2022-11-05T07:13:34.701Z,99501.14
2022-11-05T07:16:10.267Z,99503.17
2022-11-05T07:18:45.253Z,99503.73
2022-11-05T07:21:13.687Z,99508.48
2022-11-05T07:23:41.881Z,99516.68
2022-11-05T07:26:09.988Z,99524.51
2022-11-05T07:28:38.600Z,99530.48
2022-11-05T07:31:06.788Z,99538.23
2022-11-05T07:33:36.667Z,99541.91
2022-11-05T07:36:05.745Z,99540.30
2022-11-05T07:38:33.890Z,99538.20
2022-11-05T07:41:02.209Z,99533.59
2022-11-05T07:43:33.089Z,99533.27
2022-11-05T07:46:01.448Z,99535.66
2022-11-05T07:48:29.619Z,99540.19
2022-11-05T07:50:57.769Z,99540.11
2022-11-05T07:53:25.928Z,99546.48
2022-11-05T07:55:54.437Z,99552.23
2022-11-05T07:58:22.673Z,99554.85
2022-11-05T08:00:50.958Z,99557.58
2022-11-05T08:03:20.720Z,99559.94
2022-11-05T08:05:49.960Z,99559.98
2022-11-05T08:08:20.008Z,99558.17
2022-11-05T08:10:48.151Z,99557.01
2022-11-05T08:13:16.934Z,99557.45
2022-11-05T08:15:45.717Z,99561.61
2022-11-05T08:18:16.533Z,99562.10
2022-11-05T08:20:46.633Z,99562.70
2022-11-05T08:23:15.155Z,99563.09
2022-11-05T08:25:43.818Z,99565.09
2022-11-05T08:28:13.830Z,99569.30
2022-11-05T08:30:42.627Z,99570.68
2022-11-05T08:33:13.273Z,99578.09
2022-11-05T08:35:41.935Z,99581.27
2022-11-05T08:38:14.867Z,99588.61
2022-11-05T08:40:44.957Z,99591.55
2022-11-05T08:43:14.820Z,99596.14
2022-11-05T08:45:43.934Z,99598.30
2022-11-05T08:48:18.235Z,99604.38
2022-11-05T08:50:48.077Z,99605.98
2022-11-05T08:53:17.293Z,99610.05
2022-11-05T08:55:47.754Z,99616.29
2022-11-05T08:58:17.334Z,99614.95
2022-11-05T09:00:48.479Z,99618.92
2022-11-05T09:03:17.345Z,99618.46
2022-11-05T09:05:45.750Z,99621.33
2022-11-05T09:08:16.911Z,99629.33
2022-11-05T09:10:46.002Z,99634.14
2022-11-05T09:13:18.796Z,99637.00
2022-11-05T09:15:50.341Z,99642.90
2022-11-05T09:18:19.914Z,99655.08
2022-11-05T09:20:48.472Z,99654.63
2022-11-05T09:23:17.120Z,99657.46
2022-11-05T09:25:45.883Z,99659.48
2022-11-05T09:28:17.576Z,99664.99
2022-11-05T09:30:48.505Z,99666.61
2022-11-05T09:33:18.974Z,99663.39
2022-11-05T09:35:47.622Z,99667.59
2022-11-05T09:38:16.053Z,99670.61
2022-11-05T09:41:05.176Z,99679.17
2022-11-05T09:43:44.825Z,99679.48
2022-11-05T09:46:25.912Z,99675.58
2022-11-05T09:49:04.489Z,99680.83
2022-11-05T09:51:34.737Z,99687.36
2022-11-05T09:54:04.356Z,99684.38
2022-11-05T09:56:37.354Z,99685.16
2022-11-05T09:59:18.130Z,99690.83
2022-11-05T10:01:47.260Z,99694.57
2022-11-05T10:04:26.167Z,99695.78
2022-11-05T10:07:00.046Z,99699.52
2022-11-05T10:09:52.057Z,99697.89
2022-11-05T10:12:45.908Z,99698.70
2022-11-05T10:15:20.715Z,99701.48
2022-11-05T10:18:12.743Z,99702.48
2022-11-05T10:20:40.770Z,99708.19
2022-11-05T10:23:18.347Z,99708.55
2022-11-05T10:25:51.537Z,99708.34
2022-11-05T10:28:23.598Z,99708.18
2022-11-05T10:30:58.620Z,99712.08
2022-11-05T10:33:46.826Z,99714.29
2022-11-05T10:36:33.386Z,99716.11
2022-11-05T10:39:09.318Z,99715.85
2022-11-05T10:41:59.547Z,99718.83
2022-11-05T10:44:27.855Z,99722.73
2022-11-05T10:47:26.997Z,99727.34
2022-11-05T10:50:01.877Z,99733.52
2022-11-05T10:52:57.380Z,99738.95
2022-11-05T10:55:29.904Z,99739.14
2022-11-05T10:58:17.364Z,99748.41
2022-11-05T11:01:01.910Z,99748.89
2022-11-05T11:03:42.535Z,99747.06
2022-11-05T11:06:20.936Z,99745.95
2022-11-05T11:08:51.519Z,99752.68
2022-11-05T11:11:38.575Z,99754.38
2022-11-05T11:14:12.819Z,99757.02
2022-11-05T11:16:46.349Z,99759.50
2022-11-05T11:19:21.410Z,99763.04
2022-11-05T11:22:12.770Z,99766.05
2022-11-05T11:24:54.065Z,99772.63
2022-11-05T11:27:29.283Z,99780.60
2022-11-05T11:30:02.628Z,99779.33
2022-11-05T11:32:37.728Z,99777.02
2022-11-05T11:35:08.974Z,99777.34
2022-11-05T11:37:42.215Z,99774.77
2022-11-05T11:40:22.225Z,99772.98
2022-11-05T11:42:57.482Z,99772.68
2022-11-05T11:45:35.980Z,99772.36
2022-11-05T11:48:07.925Z,99778.82
2022-11-05T11:50:35.882Z,99777.21
2022-11-05T11:53:16.343Z,99782.41
2022-11-05T11:56:03.505Z,99782.91
2022-11-05T11:58:44.251Z,99782.42
2022-11-05T12:01:37.431Z,99782.90
2022-11-05T12:04:08.617Z,99782.69
2022-11-05T12:06:45.148Z,99782.60
2022-11-05T12:09:20.251Z,99777.07
2022-11-05T12:11:57.912Z,99776.21
2022-11-05T12:15:04.510Z,99774.55
2022-11-05T12:18:03.445Z,99781.41
2022-11-05T12:20:34.295Z,99781.09
2022-11-05T12:23:20.660Z,99783.23
2022-11-05T12:26:01.718Z,99783.76
2022-11-05T12:28:57.720Z,99791.10
2022-11-05T12:32:05.444Z,99792.90
2022-11-05T12:35:02.673Z,99793.27
2022-11-05T12:37:34.563Z,99794.73
2022-11-05T12:40:27.308Z,99798.11
2022-11-05T12:43:11.736Z,99798.41
2022-11-05T12:45:55.263Z,99801.87
2022-11-05T12:48:42.468Z,99801.72
2022-11-05T12:51:16.657Z,99809.65
2022-11-05T12:53:52.650Z,99812.80
2022-11-05T12:57:10.283Z,99807.92
2022-11-05T12:59:52.072Z,99813.08
2022-11-05T13:02:32.536Z,99820.97
2022-11-05T13:05:35.006Z,99823.02
2022-11-05T13:08:09.078Z,99823.45
2022-11-05T13:10:44.535Z,99828.77
2022-11-05T13:13:35.642Z,99829.95
2022-11-05T13:16:16.154Z,99825.91
2022-11-05T13:18:49.887Z,99829.67
2022-11-05T13:21:23.508Z,99832.56
2022-11-05T13:24:17.191Z,99838.06
2022-11-05T13:27:23.420Z,99836.59
2022-11-05T13:30:18.766Z,99838.96
2022-11-05T13:32:54.197Z,99839.17
2022-11-05T13:35:40.259Z,99843.52
2022-11-05T13:38:37.127Z,99844.99
2022-11-05T13:41:31.267Z,99849.20
2022-11-05T13:44:26.835Z,99852.36
2022-11-05T13:46:54.888Z,99850.93
2022-11-05T13:49:54.841Z,99852.23
2022-11-05T13:52:51.258Z,99850.31
2022-11-05T13:55:31.536Z,99848.70
2022-11-05T13:58:11.542Z,99848.67
2022-11-05T14:01:07.959Z,99850.82
2022-11-05T14:03:37.386Z,99858.50
2022-11-05T14:06:10.947Z,99860.34
2022-11-05T14:08:45.855Z,99857.89
2022-11-05T14:11:25.701Z,99851.63
2022-11-05T14:13:59.683Z,99855.70
2022-11-05T14:16:53.399Z,99858.63
2022-11-05T14:19:30.804Z,99862.05
2022-11-05T14:21:59.709Z,99859.77
2022-11-05T14:24:42.861Z,99863.70
2022-11-05T14:27:13.789Z,99863.05
2022-11-05T14:29:49.788Z,99868.94
2022-11-05T14:32:18.260Z,99868.21
2022-11-05T14:35:04.271Z,99874.45
2022-11-05T14:37:40.239Z,99876.94
2022-11-05T14:40:29.516Z,99879.53
2022-11-05T14:43:02.309Z,99881.26
2022-11-05T14:45:37.116Z,99883.68
2022-11-05T14:48:24.726Z,99885.92
2022-11-05T14:50:52.900Z,99893.52
2022-11-05T14:53:32.355Z,99896.23
2022-11-05T14:56:09.005Z,99902.70
2022-11-05T14:58:41.747Z,99908.23
2022-11-05T15:01:33.352Z,99905.92
2022-11-05T15:04:17.380Z,99909.70
2022-11-05T15:07:03.872Z,99910.36
2022-11-05T15:09:42.810Z,99916.51
2022-11-05T15:12:18.842Z,99915.45
2022-11-05T15:15:01.579Z,99917.02
2022-11-05T15:17:45.975Z,99917.13
2022-11-05T15:20:18.839Z,99914.13
2022-11-05T15:22:52.703Z,99914.31
2022-11-05T15:25:30.811Z,99914.53
2022-11-05T15:28:06.584Z,99916.88
2022-11-05T15:30:34.778Z,99915.33
2022-11-05T15:33:20.782Z,99917.00
2022-11-05T15:35:49.203Z,99914.70
2022-11-05T15:38:31.121Z,99915.55
2022-11-05T15:41:15.626Z,99922.01
2022-11-05T15:43:47.912Z,99927.27
2022-11-05T15:46:25.682Z,99925.67
2022-11-05T15:49:17.357Z,99925.04
2022-11-05T15:51:45.771Z,99926.42
2022-11-05T15:54:36.042Z,99926.80
2022-11-05T15:57:04.693Z,99928.95
2022-11-05T15:59:32.899Z,99930.41
2022-11-05T16:02:21.042Z,99935.98
2022-11-05T16:04:49.787Z,99935.48
2022-11-05T16:07:18.913Z,99940.55
2022-11-05T16:10:05.054Z,99943.85
2022-11-05T16:12:37.062Z,99949.66
2022-11-05T16:15:08.153Z,99949.04
2022-11-05T16:17:49.296Z,99954.98
2022-11-05T16:20:35.305Z,99962.10
2022-11-05T16:23:23.388Z,99965.04
2022-11-05T16:25:51.923Z,99970.76
2022-11-05T16:28:28.684Z,99967.85
2022-11-05T16:30:58.146Z,99970.77
2022-11-05T16:33:33.190Z,99975.27
2022-11-05T16:36:01.371Z,99980.29
2022-11-05T16:38:29.429Z,99982.31
2022-11-05T16:40:59.103Z,99986.79
2022-11-05T16:43:27.681Z,99991.64
2022-11-05T16:45:59.179Z,99994.14
2022-11-05T16:48:27.816Z,99993.91
2022-11-05T16:50:56.014Z,99994.84
2022-11-05T16:53:24.429Z,99999.06
2022-11-05T16:55:52.649Z,99995.77
2022-11-05T16:58:26.323Z,99998.38
2022-11-05T17:01:12.247Z,100000.07
2022-11-05T17:03:40.402Z,99998.61
2022-11-05T17:06:08.739Z,100000.98
2022-11-05T17:08:36.825Z,100003.14
2022-11-05T17:11:06.347Z,100003.67
2022-11-05T17:13:34.735Z,100004.52
2022-11-05T17:16:02.888Z,100004.54
2022-11-05T17:18:31.216Z,100009.23
2022-11-05T17:20:59.382Z,100011.33
2022-11-05T17:23:28.029Z,100019.39
2022-11-05T17:26:02.369Z,100023.61
2022-11-05T17:28:31.562Z,100022.75
2022-11-05T17:31:01.477Z,100025.34
2022-11-05T17:33:32.617Z,100024.87
2022-11-05T17:36:05.042Z,100030.15
2022-11-05T17:38:33.899Z,100030.84
2022-11-05T17:41:02.485Z,100036.63
2022-11-05T17:43:30.628Z,100038.59
2022-11-05T17:46:04.296Z,100042.15
2022-11-05T17:48:33.016Z,100040.33
2022-11-05T17:51:01.187Z,100041.10
2022-11-05T17:53:29.412Z,100043.80
2022-11-05T17:55:58.401Z,100044.52
2022-11-05T17:58:26.779Z,100048.68
2022-11-05T18:00:55.599Z,100051.95
2022-11-05T18:03:23.804Z,100053.55
2022-11-05T18:05:55.573Z,100054.39
2022-11-05T18:08:24.491Z,100057.95
2022-11-05T18:10:53.454Z,100057.56
2022-11-05T18:13:22.743Z,100061.58
2022-11-05T18:15:52.772Z,100063.04
2022-11-05T18:18:21.809Z,100067.98
2022-11-05T18:20:50.545Z,100072.80
2022-11-05T18:23:18.874Z,100073.10
2022-11-05T18:25:47.162Z,100071.79
2022-11-05T18:28:18.466Z,100076.09
2022-11-05T18:30:46.790Z,100080.77
2022-11-05T18:33:15.246Z,100080.41
2022-11-05T18:35:45.167Z,100084.64
2022-11-05T18:38:13.351Z,100083.09
2022-11-05T18:40:41.588Z,100081.15
2022-11-05T18:43:10.523Z,100080.04
2022-11-05T18:45:39.085Z,100082.64
2022-11-05T18:48:07.407Z,100083.40
2022-11-05T18:50:36.026Z,100085.23
2022-11-05T18:53:04.153Z,100087.61
2022-11-05T18:55:32.252Z,100088.58
2022-11-05T18:58:00.447Z,100085.22
2022-11-05T19:00:28.615Z,100082.23
2022-11-05T19:02:58.690Z,100083.87
2022-11-05T19:05:29.640Z,100086.21
2022-11-05T19:07:58.574Z,100088.90
2022-11-05T19:10:27.735Z,100092.50
2022-11-05T19:12:56.304Z,100091.22
2022-11-05T19:15:27.135Z,100099.08
2022-11-05T19:17:55.482Z,100099.64
2022-11-05T19:20:24.152Z,100097.57
2022-11-05T19:22:53.687Z,100094.54
2022-11-05T19:25:22.702Z,100094.05
2022-11-05T19:27:51.347Z,100099.83
2022-11-05T19:30:19.602Z,100099.22
2022-11-05T19:32:48.094Z,100097.86
2022-11-05T19:35:16.930Z,100094.02
2022-11-05T19:37:45.444Z,100095.91
2022-11-05T19:40:14.284Z,100098.48
2022-11-05T19:42:44.942Z,100103.66
2022-11-05T19:45:43.031Z,100109.79
2022-11-05T19:48:02.705Z,100116.43
2022-11-05T19:50:31.995Z,100121.34
2022-11-05T19:53:02.178Z,100124.70
2022-11-05T19:55:33.030Z,100125.15
2022-11-05T19:58:02.051Z,100123.61
2022-11-05T20:00:32.899Z,100124.55
2022-11-05T20:03:02.063Z,100124.84
2022-11-05T20:05:30.622Z,100127.87
2022-11-05T20:07:59.676Z,100124.06
2022-11-05T20:10:28.601Z,100118.68
2022-11-05T20:12:57.983Z,100116.79
2022-11-05T20:15:26.638Z,100119.42
2022-11-05T20:17:56.576Z,100123.00
2022-11-05T20:20:26.672Z,100122.01
2022-11-05T20:22:55.787Z,100126.07
2022-11-05T20:25:26.298Z,100126.16
2022-11-05T20:27:58.572Z,100128.61
2022-11-05T20:30:28.388Z,100133.39
2022-11-05T20:32:58.547Z,100133.19
2022-11-05T20:35:28.507Z,100135.61
2022-11-05T20:37:58.981Z,100140.90
2022-11-05T20:40:27.185Z,100139.59
2022-11-05T20:42:56.611Z,100141.65
2022-11-05T20:45:24.909Z,100145.76
2022-11-05T20:47:54.141Z,100149.37
2022-11-05T20:50:24.435Z,100155.57
2022-11-05T20:52:53.552Z,100156.66
2022-11-05T20:55:23.997Z,100160.94
2022-11-05T20:57:53.872Z,100161.02
2022-11-05T21:00:27.758Z,100161.48
2022-11-05T21:02:59.790Z,100162.91
2022-11-05T21:05:34.244Z,100164.26
2022-11-05T21:08:06.181Z,100167.63
2022-11-05T21:10:36.937Z,100168.66
2022-11-05T21:13:10.951Z,100168.41
2022-11-05T21:16:21.621Z,100164.70
2022-11-05T21:19:26.444Z,100163.98
2022-11-05T21:23:10.923Z,100163.43
2022-11-05T21:26:18.601Z,100165.52
2022-11-05T21:28:51.773Z,100165.83
2022-11-05T21:31:21.703Z,100167.52
2022-11-05T21:33:55.140Z,100163.87
2022-11-05T21:36:35.983Z,100159.20
2022-11-05T21:39:09.093Z,100156.74
2022-11-05T21:41:43.553Z,100155.15
2022-11-05T21:44:11.970Z,100153.27
2022-11-05T21:46:40.789Z,100154.70
2022-11-05T21:49:09.683Z,100154.36
2022-11-05T21:51:56.503Z,100152.48
2022-11-05T21:54:43.531Z,100155.92
2022-11-05T21:57:36.189Z,100150.35
2022-11-05T22:00:09.816Z,100148.00
2022-11-05T22:02:39.331Z,100146.38
2022-11-05T22:05:08.196Z,100145.48
2022-11-05T22:07:38.564Z,100143.70
2022-11-05T22:10:14.833Z,100142.99
2022-11-05T22:12:45.879Z,100141.29
2022-11-05T22:15:15.010Z,100144.97
2022-11-05T22:17:47.206Z,100142.73
2022-11-05T22:20:16.991Z,100142.58
2022-11-05T22:22:45.629Z,100147.06
2022-11-05T22:25:14.894Z,100148.40
2022-11-05T22:27:44.217Z,100147.65
2022-11-05T22:30:13.794Z,100145.17
2022-11-05T22:32:43.178Z,100143.60
2022-11-05T22:35:11.345Z,100146.52
2022-11-05T22:37:39.632Z,100150.14
2022-11-05T22:40:08.365Z,100151.84
2022-11-05T22:42:42.761Z,100154.41
2022-11-05T22:45:12.324Z,100153.06
2022-11-05T22:47:44.366Z,100156.13
2022-11-05T22:50:15.140Z,100154.36
2022-11-05T22:52:46.944Z,100160.73
2022-11-05T22:55:18.478Z,100161.38
2022-11-05T22:57:50.888Z,100162.67
2022-11-05T23:00:19.472Z,100165.52
2022-11-05T23:02:48.503Z,100162.77
2022-11-05T23:05:16.969Z,100160.00
2022-11-05T23:08:06.993Z,100158.46
2022-11-05T23:10:58.763Z,100159.20
2022-11-05T23:13:29.632Z,100157.13
2022-11-05T23:16:16.671Z,100158.37
2022-11-05T23:19:03.776Z,100159.96
2022-11-05T23:21:50.843Z,100166.96
2022-11-05T23:24:19.445Z,100171.05
2022-11-05T23:26:50.713Z,100173.72
2022-11-05T23:29:24.201Z,100178.11
2022-11-05T23:32:12.495Z,100175.39
2022-11-05T23:34:44.013Z,100172.82
2022-11-05T23:37:31.382Z,100172.48
2022-11-05T23:40:02.320Z,100169.55
2022-11-05T23:42:49.540Z,100168.86
2022-11-05T23:45:40.727Z,100165.27
2022-11-05T23:48:18.650Z,100162.16
2022-11-05T23:51:09.498Z,100158.19
2022-11-05T23:53:42.627Z,100164.29
2022-11-05T23:56:14.570Z,100159.09
2022-11-05T23:58:43.768Z,100164.85
